sensor_id;sensor_type;location;lat;lon;timestamp;pressure;altitude;pressure_sealevel;temperature;humidity
73332;BME280;61560;33.718;73.040;2022-07-23T00:00:17;94120.06;;;27.37;81.54
73332;BME280;61560;33.718;73.040;2022-07-23T00:02:44;94109.34;;;27.36;81.64
73332;BME280;61560;33.718;73.040;2022-07-23T00:05:11;94125.47;;;27.35;81.58
73332;BME280;61560;33.718;73.040;2022-07-23T00:07:38;94120.59;;;27.36;81.06
73332;BME280;61560;33.718;73.040;2022-07-23T00:10:05;94130.00;;;27.38;80.90
73332;BME280;61560;33.718;73.040;2022-07-23T00:12:32;94126.75;;;27.34;81.36
73332;BME280;61560;33.718;73.040;2022-07-23T00:14:59;94131.09;;;27.35;80.91
73332;BME280;61560;33.718;73.040;2022-07-23T00:17:26;94133.91;;;27.35;81.06
73332;BME280;61560;33.718;73.040;2022-07-23T00:19:53;94142.00;;;27.39;81.24
73332;BME280;61560;33.718;73.040;2022-07-23T00:22:19;94139.41;;;27.41;80.96
73332;BME280;61560;33.718;73.040;2022-07-23T00:24:48;94133.69;;;27.46;80.92
73332;BME280;61560;33.718;73.040;2022-07-23T00:27:14;94136.19;;;27.50;80.73
73332;BME280;61560;33.718;73.040;2022-07-23T00:29:41;94129.03;;;27.49;80.51
73332;BME280;61560;33.718;73.040;2022-07-23T00:32:08;94132.84;;;27.51;81.08
73332;BME280;61560;33.718;73.040;2022-07-23T00:34:35;94128.91;;;27.54;80.32
73332;BME280;61560;33.718;73.040;2022-07-23T00:37:01;94130.44;;;27.55;80.58
73332;BME280;61560;33.718;73.040;2022-07-23T00:39:29;94135.53;;;27.57;80.30
73332;BME280;61560;33.718;73.040;2022-07-23T00:41:55;94124.28;;;27.57;80.58
73332;BME280;61560;33.718;73.040;2022-07-23T00:44:27;94136.50;;;27.60;80.53
73332;BME280;61560;33.718;73.040;2022-07-23T00:46:56;94126.78;;;27.61;80.38
73332;BME280;61560;33.718;73.040;2022-07-23T00:49:26;94132.84;;;27.65;80.36
73332;BME280;61560;33.718;73.040;2022-07-23T00:51:53;94132.31;;;27.66;80.26
73332;BME280;61560;33.718;73.040;2022-07-23T00:54:22;94145.06;;;27.67;80.17
73332;BME280;61560;33.718;73.040;2022-07-23T00:56:50;94140.41;;;27.70;80.70
73332;BME280;61560;33.718;73.040;2022-07-23T00:59:16;94147.03;;;27.72;80.42
73332;BME280;61560;33.718;73.040;2022-07-23T01:01:44;94151.34;;;27.73;80.47
73332;BME280;61560;33.718;73.040;2022-07-23T01:04:11;94149.72;;;27.78;79.95
73332;BME280;61560;33.718;73.040;2022-07-23T01:06:38;94153.50;;;27.80;80.23
73332;BME280;61560;33.718;73.040;2022-07-23T01:09:06;94159.56;;;27.84;80.02
73332;BME280;61560;33.718;73.040;2022-07-23T01:11:34;94161.53;;;27.89;80.01
73332;BME280;61560;33.718;73.040;2022-07-23T01:14:11;94167.59;;;27.93;79.20
73332;BME280;61560;33.718;73.040;2022-07-23T01:16:39;94165.97;;;27.98;79.42
73332;BME280;61560;33.718;73.040;2022-07-23T01:19:06;94161.31;;;28.00;79.39
73332;BME280;61560;33.718;73.040;2022-07-23T01:21:36;94164.78;;;28.06;78.92
73332;BME280;61560;33.718;73.040;2022-07-23T01:24:04;94165.66;;;28.14;78.56
73332;BME280;61560;33.718;73.040;2022-07-23T01:26:32;94168.16;;;28.18;78.29
73332;BME280;61560;33.718;73.040;2022-07-23T01:28:59;94172.03;;;28.28;78.11
73332;BME280;61560;33.718;73.040;2022-07-23T01:31:26;94169.81;;;28.47;77.64
73332;BME280;61560;33.718;73.040;2022-07-23T01:33:53;94177.47;;;28.73;77.41
73332;BME280;61560;33.718;73.040;2022-07-23T01:36:20;94172.50;;;28.99;76.10
73332;BME280;61560;33.718;73.040;2022-07-23T01:38:47;94180.31;;;29.27;75.06
73332;BME280;61560;33.718;73.040;2022-07-23T01:41:14;94180.81;;;29.39;74.90
73332;BME280;61560;33.718;73.040;2022-07-23T01:43:42;94176.53;;;29.45;74.28
73332;BME280;61560;33.718;73.040;2022-07-23T01:46:09;94173.38;;;29.49;74.49
73332;BME280;61560;33.718;73.040;2022-07-23T01:48:41;94175.06;;;29.52;74.06
73332;BME280;61560;33.718;73.040;2022-07-23T01:51:28;94177.22;;;29.59;73.84
73332;BME280;61560;33.718;73.040;2022-07-23T01:54:04;94173.06;;;29.80;72.85
73332;BME280;61560;33.718;73.040;2022-07-23T01:56:31;94174.97;;;30.14;72.02
73332;BME280;61560;33.718;73.040;2022-07-23T01:58:57;94175.50;;;30.40;70.83
73332;BME280;61560;33.718;73.040;2022-07-23T02:01:24;94159.78;;;30.60;69.49
73332;BME280;61560;33.718;73.040;2022-07-23T02:03:53;94167.75;;;30.84;68.52
73332;BME280;61560;33.718;73.040;2022-07-23T02:06:21;94178.78;;;31.03;67.19
73332;BME280;61560;33.718;73.040;2022-07-23T02:08:49;94180.84;;;31.10;66.23
73332;BME280;61560;33.718;73.040;2022-07-23T02:11:16;94175.44;;;31.34;65.57
73332;BME280;61560;33.718;73.040;2022-07-23T02:13:42;94177.34;;;31.47;65.27
73332;BME280;61560;33.718;73.040;2022-07-23T02:16:09;94187.13;;;31.31;64.85
73332;BME280;61560;33.718;73.040;2022-07-23T02:18:35;94185.28;;;31.41;64.75
73332;BME280;61560;33.718;73.040;2022-07-23T02:21:02;94189.63;;;31.57;64.54
73332;BME280;61560;33.718;73.040;2022-07-23T02:23:29;94191.13;;;31.66;64.55
73332;BME280;61560;33.718;73.040;2022-07-23T02:25:56;94194.56;;;31.94;63.68
73332;BME280;61560;33.718;73.040;2022-07-23T02:28:22;94194.94;;;32.06;62.66
73332;BME280;61560;33.718;73.040;2022-07-23T02:30:49;94203.59;;;32.15;62.01
73332;BME280;61560;33.718;73.040;2022-07-23T02:33:16;94211.34;;;32.22;62.17
73332;BME280;61560;33.718;73.040;2022-07-23T02:35:43;94216.63;;;32.26;62.52
73332;BME280;61560;33.718;73.040;2022-07-23T02:38:10;94220.16;;;32.57;61.53
73332;BME280;61560;33.718;73.040;2022-07-23T02:40:37;94209.69;;;32.82;60.67
73332;BME280;61560;33.718;73.040;2022-07-23T02:43:03;94215.72;;;32.86;60.29
73332;BME280;61560;33.718;73.040;2022-07-23T02:45:30;94213.53;;;33.09;59.17
73332;BME280;61560;33.718;73.040;2022-07-23T02:47:57;94219.75;;;33.15;59.71
73332;BME280;61560;33.718;73.040;2022-07-23T02:50:24;94223.91;;;33.46;58.85
73332;BME280;61560;33.718;73.040;2022-07-23T02:52:55;94228.59;;;33.83;57.53
73332;BME280;61560;33.718;73.040;2022-07-23T02:55:26;94234.03;;;33.89;57.05
73332;BME280;61560;33.718;73.040;2022-07-23T02:57:53;94235.88;;;34.02;56.77
73332;BME280;61560;33.718;73.040;2022-07-23T03:00:20;94232.72;;;34.15;55.92
73332;BME280;61560;33.718;73.040;2022-07-23T03:02:47;94234.00;;;34.38;55.14
73332;BME280;61560;33.718;73.040;2022-07-23T03:05:13;94231.59;;;34.35;55.60
73332;BME280;61560;33.718;73.040;2022-07-23T03:07:40;94235.41;;;34.13;55.74
73332;BME280;61560;33.718;73.040;2022-07-23T03:10:07;94245.72;;;33.76;56.30
73332;BME280;61560;33.718;73.040;2022-07-23T03:12:34;94234.56;;;33.70;57.14
73332;BME280;61560;33.718;73.040;2022-07-23T03:15:00;94225.81;;;33.51;57.91
73332;BME280;61560;33.718;73.040;2022-07-23T03:17:28;94231.16;;;33.40;57.38
73332;BME280;61560;33.718;73.040;2022-07-23T03:19:54;94236.00;;;33.22;58.07
73332;BME280;61560;33.718;73.040;2022-07-23T03:22:23;94237.59;;;33.08;57.60
73332;BME280;61560;33.718;73.040;2022-07-23T03:24:50;94235.53;;;32.93;57.99
73332;BME280;61560;33.718;73.040;2022-07-23T03:27:30;94234.66;;;32.76;58.99
73332;BME280;61560;33.718;73.040;2022-07-23T03:29:58;94245.88;;;32.59;59.28
73332;BME280;61560;33.718;73.040;2022-07-23T03:32:25;94240.41;;;32.53;60.35
73332;BME280;61560;33.718;73.040;2022-07-23T03:34:52;94237.69;;;32.70;59.64
73332;BME280;61560;33.718;73.040;2022-07-23T03:37:20;94236.34;;;32.79;59.18
73332;BME280;61560;33.718;73.040;2022-07-23T03:39:47;94236.84;;;32.92;59.02
73332;BME280;61560;33.718;73.040;2022-07-23T03:42:14;94238.19;;;32.91;58.78
73332;BME280;61560;33.718;73.040;2022-07-23T03:44:40;94238.97;;;32.84;58.78
73332;BME280;61560;33.718;73.040;2022-07-23T03:47:07;94234.66;;;32.76;59.17
73332;BME280;61560;33.718;73.040;2022-07-23T03:49:34;94233.19;;;32.67;59.50
73332;BME280;61560;33.718;73.040;2022-07-23T03:52:00;94228.53;;;32.94;58.85
73332;BME280;61560;33.718;73.040;2022-07-23T03:54:27;94233.94;;;33.55;56.18
73332;BME280;61560;33.718;73.040;2022-07-23T03:56:54;94234.47;;;33.85;56.07
73332;BME280;61560;33.718;73.040;2022-07-23T03:59:20;94248.03;;;33.95;56.01
73332;BME280;61560;33.718;73.040;2022-07-23T04:01:48;94254.69;;;33.33;58.60
73332;BME280;61560;33.718;73.040;2022-07-23T04:04:18;94261.66;;;32.99;59.00
73332;BME280;61560;33.718;73.040;2022-07-23T04:06:45;94259.28;;;32.58;60.54
73332;BME280;61560;33.718;73.040;2022-07-23T04:09:12;94258.91;;;32.39;60.96
73332;BME280;61560;33.718;73.040;2022-07-23T04:11:39;94247.41;;;32.29;61.70
73332;BME280;61560;33.718;73.040;2022-07-23T04:14:06;94245.47;;;32.62;60.98
73332;BME280;61560;33.718;73.040;2022-07-23T04:16:34;94246.03;;;33.23;59.87
73332;BME280;61560;33.718;73.040;2022-07-23T04:19:00;94250.56;;;33.58;58.60
73332;BME280;61560;33.718;73.040;2022-07-23T04:21:32;94239.88;;;33.99;56.44
73332;BME280;61560;33.718;73.040;2022-07-23T04:24:00;94245.81;;;34.35;55.77
73332;BME280;61560;33.718;73.040;2022-07-23T04:26:26;94232.56;;;35.06;54.20
73332;BME280;61560;33.718;73.040;2022-07-23T04:28:53;94232.47;;;35.40;53.25
73332;BME280;61560;33.718;73.040;2022-07-23T04:31:20;94226.50;;;35.19;53.46
73332;BME280;61560;33.718;73.040;2022-07-23T04:33:47;94225.75;;;35.18;53.49
73332;BME280;61560;33.718;73.040;2022-07-23T04:36:13;94219.91;;;34.65;54.58
73332;BME280;61560;33.718;73.040;2022-07-23T04:38:40;94225.16;;;34.34;55.52
73332;BME280;61560;33.718;73.040;2022-07-23T04:41:06;94231.75;;;34.37;56.05
73332;BME280;61560;33.718;73.040;2022-07-23T04:43:33;94220.56;;;34.39;54.56
73332;BME280;61560;33.718;73.040;2022-07-23T04:46:00;94225.34;;;35.05;52.44
73332;BME280;61560;33.718;73.040;2022-07-23T04:48:29;94231.06;;;35.49;51.51
73332;BME280;61560;33.718;73.040;2022-07-23T04:51:04;94222.41;;;35.56;51.72
73332;BME280;61560;33.718;73.040;2022-07-23T04:53:31;94229.91;;;35.88;51.30
73332;BME280;61560;33.718;73.040;2022-07-23T04:56:00;94233.13;;;36.01;50.91
73332;BME280;61560;33.718;73.040;2022-07-23T04:58:28;94227.88;;;35.71;51.31
73332;BME280;61560;33.718;73.040;2022-07-23T05:00:54;94227.88;;;35.01;53.23
73332;BME280;61560;33.718;73.040;2022-07-23T05:03:24;94238.19;;;34.79;53.59
73332;BME280;61560;33.718;73.040;2022-07-23T05:05:50;94229.47;;;34.60;54.10
73332;BME280;61560;33.718;73.040;2022-07-23T05:08:18;94236.16;;;34.55;54.39
73332;BME280;61560;33.718;73.040;2022-07-23T05:10:49;94235.75;;;34.58;53.22
73332;BME280;61560;33.718;73.040;2022-07-23T05:13:18;94229.47;;;34.60;53.46
73332;BME280;61560;33.718;73.040;2022-07-23T05:15:45;94223.16;;;35.13;52.68
73332;BME280;61560;33.718;73.040;2022-07-23T05:18:13;94223.78;;;35.65;49.57
73332;BME280;61560;33.718;73.040;2022-07-23T05:20:40;94219.81;;;36.13;48.87
73332;BME280;61560;33.718;73.040;2022-07-23T05:23:08;94219.69;;;36.31;48.48
73332;BME280;61560;33.718;73.040;2022-07-23T05:25:35;94217.44;;;36.29;48.01
73332;BME280;61560;33.718;73.040;2022-07-23T05:28:02;94213.84;;;35.92;49.24
73332;BME280;61560;33.718;73.040;2022-07-23T05:30:28;94215.09;;;35.63;50.46
73332;BME280;61560;33.718;73.040;2022-07-23T05:32:59;94209.22;;;35.61;50.96
73332;BME280;61560;33.718;73.040;2022-07-23T05:35:26;94213.41;;;35.60;49.69
73332;BME280;61560;33.718;73.040;2022-07-23T05:38:12;94217.84;;;35.26;50.26
73332;BME280;61560;33.718;73.040;2022-07-23T05:40:39;94213.81;;;35.03;50.39
73332;BME280;61560;33.718;73.040;2022-07-23T05:43:05;94218.41;;;34.98;50.88
73332;BME280;61560;33.718;73.040;2022-07-23T05:45:33;94207.59;;;35.14;49.53
73332;BME280;61560;33.718;73.040;2022-07-23T05:48:00;94199.00;;;35.31;49.76
73332;BME280;61560;33.718;73.040;2022-07-23T05:50:34;94196.38;;;35.16;50.32
73332;BME280;61560;33.718;73.040;2022-07-23T05:53:21;94206.28;;;34.81;51.19
73332;BME280;61560;33.718;73.040;2022-07-23T05:55:58;94202.22;;;34.32;53.53
73332;BME280;61560;33.718;73.040;2022-07-23T05:58:25;94213.72;;;34.00;53.79
73332;BME280;61560;33.718;73.040;2022-07-23T06:00:52;94211.91;;;33.63;55.58
73332;BME280;61560;33.718;73.040;2022-07-23T06:03:20;94228.78;;;33.29;56.99
73332;BME280;61560;33.718;73.040;2022-07-23T06:05:47;94220.22;;;32.89;59.31
73332;BME280;61560;33.718;73.040;2022-07-23T06:08:13;94221.13;;;32.37;61.56
73332;BME280;61560;33.718;73.040;2022-07-23T06:10:40;94223.63;;;32.02;62.35
73332;BME280;61560;33.718;73.040;2022-07-23T06:13:07;94239.66;;;31.62;64.11
73332;BME280;61560;33.718;73.040;2022-07-23T06:15:33;94249.72;;;31.12;65.79
73332;BME280;61560;33.718;73.040;2022-07-23T06:18:04;94237.84;;;30.70;68.74
73332;BME280;61560;33.718;73.040;2022-07-23T06:20:31;94233.19;;;30.45;69.52
73332;BME280;61560;33.718;73.040;2022-07-23T06:22:58;94213.31;;;30.30;70.43
73332;BME280;61560;33.718;73.040;2022-07-23T06:25:25;94203.06;;;30.19;70.20
73332;BME280;61560;33.718;73.040;2022-07-23T06:27:51;94206.84;;;30.22;68.79
73332;BME280;61560;33.718;73.040;2022-07-23T06:30:18;94204.34;;;30.11;68.79
73332;BME280;61560;33.718;73.040;2022-07-23T06:32:46;94221.03;;;30.01;68.67
73332;BME280;61560;33.718;73.040;2022-07-23T06:35:14;94217.75;;;29.89;68.96
73332;BME280;61560;33.718;73.040;2022-07-23T06:37:41;94212.06;;;29.82;69.03
73332;BME280;61560;33.718;73.040;2022-07-23T06:40:09;94213.75;;;29.64;70.14
73332;BME280;61560;33.718;73.040;2022-07-23T06:42:36;94222.56;;;29.61;71.19
73332;BME280;61560;33.718;73.040;2022-07-23T06:45:06;94231.66;;;29.67;71.93
73332;BME280;61560;33.718;73.040;2022-07-23T06:47:35;94229.72;;;29.62;72.33
73332;BME280;61560;33.718;73.040;2022-07-23T06:50:02;94237.16;;;29.52;73.11
73332;BME280;61560;33.718;73.040;2022-07-23T06:52:29;94231.88;;;29.48;73.52
73332;BME280;61560;33.718;73.040;2022-07-23T06:54:56;94219.75;;;29.40;74.40
73332;BME280;61560;33.718;73.040;2022-07-23T06:57:24;94205.84;;;29.42;74.92
73332;BME280;61560;33.718;73.040;2022-07-23T06:59:52;94214.72;;;29.46;74.07
73332;BME280;61560;33.718;73.040;2022-07-23T07:02:18;94230.69;;;29.44;73.58
73332;BME280;61560;33.718;73.040;2022-07-23T07:04:45;94245.34;;;29.42;73.33
73332;BME280;61560;33.718;73.040;2022-07-23T07:07:11;94256.44;;;29.40;73.12
73332;BME280;61560;33.718;73.040;2022-07-23T07:09:38;94256.44;;;29.40;73.39
73332;BME280;61560;33.718;73.040;2022-07-23T07:12:05;94253.81;;;29.42;73.55
73332;BME280;61560;33.718;73.040;2022-07-23T07:14:32;94246.31;;;29.45;73.46
73332;BME280;61560;33.718;73.040;2022-07-23T07:16:58;94244.72;;;29.36;72.53
73332;BME280;61560;33.718;73.040;2022-07-23T07:19:25;94239.03;;;29.29;72.50
73332;BME280;61560;33.718;73.040;2022-07-23T07:21:51;94245.78;;;29.12;74.65
73332;BME280;61560;33.718;73.040;2022-07-23T07:24:18;94249.63;;;29.02;76.14
73332;BME280;61560;33.718;73.040;2022-07-23T07:26:44;94236.72;;;28.93;76.59
73332;BME280;61560;33.718;73.040;2022-07-23T07:29:11;94213.44;;;28.80;76.52
73332;BME280;61560;33.718;73.040;2022-07-23T07:31:37;94204.03;;;28.77;77.08
73332;BME280;61560;33.718;73.040;2022-07-23T07:34:04;94189.38;;;28.79;77.48
73332;BME280;61560;33.718;73.040;2022-07-23T07:36:31;94190.03;;;28.85;77.68
73332;BME280;61560;33.718;73.040;2022-07-23T07:38:58;94191.19;;;28.89;77.96
73332;BME280;61560;33.718;73.040;2022-07-23T07:41:25;94185.00;;;28.91;77.85
73332;BME280;61560;33.718;73.040;2022-07-23T07:43:52;94177.31;;;28.91;77.80
73332;BME280;61560;33.718;73.040;2022-07-23T07:46:20;94166.81;;;28.92;77.64
73332;BME280;61560;33.718;73.040;2022-07-23T07:48:50;94152.16;;;28.93;77.91
73332;BME280;61560;33.718;73.040;2022-07-23T07:51:17;94159.50;;;28.96;77.88
73332;BME280;61560;33.718;73.040;2022-07-23T07:53:43;94146.16;;;28.97;77.30
73332;BME280;61560;33.718;73.040;2022-07-23T07:56:10;94154.34;;;29.08;77.79
73332;BME280;61560;33.718;73.040;2022-07-23T07:58:36;94160.94;;;29.10;77.41
73332;BME280;61560;33.718;73.040;2022-07-23T08:01:03;94172.00;;;29.08;76.95
73332;BME280;61560;33.718;73.040;2022-07-23T08:03:29;94181.16;;;29.01;76.95
73332;BME280;61560;33.718;73.040;2022-07-23T08:05:56;94170.03;;;28.96;77.42
73332;BME280;61560;33.718;73.040;2022-07-23T08:08:22;94169.28;;;28.95;78.58
73332;BME280;61560;33.718;73.040;2022-07-23T08:10:49;94169.53;;;28.84;79.48
73332;BME280;61560;33.718;73.040;2022-07-23T08:13:16;94168.06;;;28.70;78.90
73332;BME280;61560;33.718;73.040;2022-07-23T08:15:44;94162.44;;;28.57;78.86
73332;BME280;61560;33.718;73.040;2022-07-23T08:18:10;94155.94;;;28.49;77.78
73332;BME280;61560;33.718;73.040;2022-07-23T08:20:38;94146.22;;;28.37;78.39
73332;BME280;61560;33.718;73.040;2022-07-23T08:23:07;94136.50;;;28.25;78.55
73332;BME280;61560;33.718;73.040;2022-07-23T08:25:39;94135.00;;;28.24;78.78
73332;BME280;61560;33.718;73.040;2022-07-23T08:28:09;94132.28;;;28.18;79.47
73332;BME280;61560;33.718;73.040;2022-07-23T08:30:37;94124.50;;;28.11;79.65
73332;BME280;61560;33.718;73.040;2022-07-23T08:33:06;94127.22;;;28.04;79.56
73332;BME280;61560;33.718;73.040;2022-07-23T08:35:47;94118.44;;;28.07;79.76
73332;BME280;61560;33.718;73.040;2022-07-23T08:38:16;94113.03;;;28.09;80.02
73332;BME280;61560;33.718;73.040;2022-07-23T08:40:46;94112.06;;;28.07;79.63
73332;BME280;61560;33.718;73.040;2022-07-23T08:43:16;94104.81;;;27.98;80.16
73332;BME280;61560;33.718;73.040;2022-07-23T08:45:45;94103.31;;;27.97;80.47
73332;BME280;61560;33.718;73.040;2022-07-23T08:48:20;94103.53;;;27.99;81.10
73332;BME280;61560;33.718;73.040;2022-07-23T08:50:50;94102.63;;;28.04;80.68
73332;BME280;61560;33.718;73.040;2022-07-23T08:53:18;94106.56;;;28.01;81.42
73332;BME280;61560;33.718;73.040;2022-07-23T08:55:51;94096.38;;;27.98;81.40
73332;BME280;61560;33.718;73.040;2022-07-23T08:58:18;94089.22;;;27.97;81.15
73332;BME280;61560;33.718;73.040;2022-07-23T09:00:46;94081.72;;;28.00;81.43
73332;BME280;61560;33.718;73.040;2022-07-23T09:05:42;94082.38;;;28.06;81.08
73332;BME280;61560;33.718;73.040;2022-07-23T09:08:12;94079.03;;;28.07;81.28
73332;BME280;61560;33.718;73.040;2022-07-23T09:10:47;94080.09;;;28.04;80.69
73332;BME280;61560;33.718;73.040;2022-07-23T09:13:38;94072.97;;;28.03;80.53
73332;BME280;61560;33.718;73.040;2022-07-23T09:16:12;94064.81;;;28.13;81.12
73332;BME280;61560;33.718;73.040;2022-07-23T09:18:53;94067.28;;;28.16;80.99
73332;BME280;61560;33.718;73.040;2022-07-23T09:24:08;94048.84;;;28.28;80.90
73332;BME280;61560;33.718;73.040;2022-07-23T09:29:07;94051.75;;;28.36;80.64
73332;BME280;61560;33.718;73.040;2022-07-23T09:34:14;94045.53;;;28.51;80.19
73332;BME280;61560;33.718;73.040;2022-07-23T09:36:43;94042.28;;;28.47;80.68
73332;BME280;61560;33.718;73.040;2022-07-23T09:39:11;94036.44;;;28.45;81.39
73332;BME280;61560;33.718;73.040;2022-07-23T09:41:44;94037.59;;;28.49;80.78
73332;BME280;61560;33.718;73.040;2022-07-23T09:44:13;94032.59;;;28.55;80.39
73332;BME280;61560;33.718;73.040;2022-07-23T09:46:43;94036.06;;;28.61;79.84
73332;BME280;61560;33.718;73.040;2022-07-23T09:49:16;94024.66;;;28.67;79.97
73332;BME280;61560;33.718;73.040;2022-07-23T09:51:52;94023.53;;;28.70;80.43
73332;BME280;61560;33.718;73.040;2022-07-23T09:57:08;94011.84;;;28.86;80.22
73332;BME280;61560;33.718;73.040;2022-07-23T09:59:39;94008.34;;;28.93;79.74
73332;BME280;61560;33.718;73.040;2022-07-23T10:02:07;94005.78;;;29.03;79.65
73332;BME280;61560;33.718;73.040;2022-07-23T10:04:46;94000.94;;;29.11;79.38
73332;BME280;61560;33.718;73.040;2022-07-23T10:07:25;93992.38;;;29.17;78.86
73332;BME280;61560;33.718;73.040;2022-07-23T10:10:13;93996.19;;;29.27;78.69
73332;BME280;61560;33.718;73.040;2022-07-23T10:13:16;93996.44;;;29.36;78.67
73332;BME280;61560;33.718;73.040;2022-07-23T10:16:03;93990.81;;;29.44;78.40
73332;BME280;61560;33.718;73.040;2022-07-23T10:18:30;93983.72;;;29.50;78.55
73332;BME280;61560;33.718;73.040;2022-07-23T10:20:57;93989.78;;;29.62;77.19
73332;BME280;61560;33.718;73.040;2022-07-23T10:26:20;93977.00;;;29.61;77.04
73332;BME280;61560;33.718;73.040;2022-07-23T10:29:21;93966.28;;;29.59;76.01
73332;BME280;61560;33.718;73.040;2022-07-23T10:32:04;93965.16;;;29.62;76.40
73332;BME280;61560;33.718;73.040;2022-07-23T10:35:03;93951.22;;;29.64;76.66
73332;BME280;61560;33.718;73.040;2022-07-23T10:37:38;93950.69;;;29.66;77.24
73332;BME280;61560;33.718;73.040;2022-07-23T10:40:20;93947.69;;;29.64;77.15
73332;BME280;61560;33.718;73.040;2022-07-23T10:42:50;93942.03;;;29.64;77.31
73332;BME280;61560;33.718;73.040;2022-07-23T10:45:34;93925.25;;;29.58;77.41
73332;BME280;61560;33.718;73.040;2022-07-23T10:48:22;93916.38;;;29.54;77.54
73332;BME280;61560;33.718;73.040;2022-07-23T10:51:11;93917.91;;;29.55;77.80
73332;BME280;61560;33.718;73.040;2022-07-23T10:59:24;93901.69;;;29.56;76.58
73332;BME280;61560;33.718;73.040;2022-07-23T11:01:51;93900.41;;;29.57;76.49
73332;BME280;61560;33.718;73.040;2022-07-23T11:04:18;93901.69;;;29.56;75.84
73332;BME280;61560;33.718;73.040;2022-07-23T11:09:40;93897.41;;;29.62;77.18
73332;BME280;61560;33.718;73.040;2022-07-23T11:15:06;93885.34;;;29.62;76.81
73332;BME280;61560;33.718;73.040;2022-07-23T11:18:16;93884.25;;;29.65;76.03
73332;BME280;61560;33.718;73.040;2022-07-23T11:20:24;93881.63;;;29.67;75.21
73332;BME280;61560;33.718;73.040;2022-07-23T11:22:54;93875.47;;;29.76;74.48
73332;BME280;61560;33.718;73.040;2022-07-23T11:27:50;93884.13;;;29.78;74.25
73332;BME280;61560;33.718;73.040;2022-07-23T11:30:46;93873.34;;;29.69;74.22
73332;BME280;61560;33.718;73.040;2022-07-23T11:35:59;93887.19;;;29.52;74.36
73332;BME280;61560;33.718;73.040;2022-07-23T11:38:27;93887.78;;;29.50;75.00
73332;BME280;61560;33.718;73.040;2022-07-23T11:40:56;93882.09;;;29.43;74.63
73332;BME280;61560;33.718;73.040;2022-07-23T11:43:24;93886.03;;;29.40;74.34
73332;BME280;61560;33.718;73.040;2022-07-23T11:45:53;93883.19;;;29.32;74.44
73332;BME280;61560;33.718;73.040;2022-07-23T11:48:25;93885.25;;;29.32;75.47
73332;BME280;61560;33.718;73.040;2022-07-23T11:50:56;93888.06;;;29.32;75.74
73332;BME280;61560;33.718;73.040;2022-07-23T11:53:32;93884.28;;;29.29;73.94
73332;BME280;61560;33.718;73.040;2022-07-23T11:56:07;93884.50;;;29.31;73.86
73332;BME280;61560;33.718;73.040;2022-07-23T11:58:36;93892.22;;;29.31;74.13
73332;BME280;61560;33.718;73.040;2022-07-23T12:01:03;93882.22;;;29.22;75.37
73332;BME280;61560;33.718;73.040;2022-07-23T12:03:30;93881.81;;;29.18;76.26
73332;BME280;61560;33.718;73.040;2022-07-23T12:05:58;93877.88;;;29.21;77.14
73332;BME280;61560;33.718;73.040;2022-07-23T12:08:25;93887.28;;;29.24;76.76
73332;BME280;61560;33.718;73.040;2022-07-23T12:10:52;93880.34;;;29.25;76.99
73332;BME280;61560;33.718;73.040;2022-07-23T12:13:20;93881.84;;;29.26;77.37
73332;BME280;61560;33.718;73.040;2022-07-23T12:15:51;93887.28;;;29.24;78.09
73332;BME280;61560;33.718;73.040;2022-07-23T12:18:24;93889.34;;;29.23;77.75
73332;BME280;61560;33.718;73.040;2022-07-23T12:20:53;93893.88;;;29.26;78.01
73332;BME280;61560;33.718;73.040;2022-07-23T12:23:22;93893.13;;;29.26;77.71
73332;BME280;61560;33.718;73.040;2022-07-23T12:25:50;93893.88;;;29.26;77.35
73332;BME280;61560;33.718;73.040;2022-07-23T12:28:26;93894.66;;;29.27;77.45
73332;BME280;61560;33.718;73.040;2022-07-23T12:30:55;93891.63;;;29.25;77.18
73332;BME280;61560;33.718;73.040;2022-07-23T12:33:31;93896.31;;;29.22;77.40
73332;BME280;61560;33.718;73.040;2022-07-23T12:36:00;93900.03;;;29.17;77.31
73332;BME280;61560;33.718;73.040;2022-07-23T12:38:35;93902.31;;;29.19;77.02
73332;BME280;61560;33.718;73.040;2022-07-23T12:41:02;93904.56;;;29.20;76.75
73332;BME280;61560;33.718;73.040;2022-07-23T12:43:32;93903.06;;;29.19;76.82
73332;BME280;61560;33.718;73.040;2022-07-23T12:46:13;93907.19;;;29.18;77.34
73332;BME280;61560;33.718;73.040;2022-07-23T12:51:17;93910.16;;;29.12;77.88
73332;BME280;61560;33.718;73.040;2022-07-23T12:53:49;93913.72;;;29.13;77.83
73332;BME280;61560;33.718;73.040;2022-07-23T12:56:20;93920.13;;;29.13;77.83
73332;BME280;61560;33.718;73.040;2022-07-23T12:58:50;93923.84;;;29.08;78.31
73332;BME280;61560;33.718;73.040;2022-07-23T13:06:29;93934.72;;;29.04;78.17
73332;BME280;61560;33.718;73.040;2022-07-23T13:08:56;93936.59;;;29.02;78.23
73332;BME280;61560;33.718;73.040;2022-07-23T13:11:24;93940.72;;;29.01;78.37
73332;BME280;61560;33.718;73.040;2022-07-23T13:13:51;93952.34;;;28.97;77.98
73332;BME280;61560;33.718;73.040;2022-07-23T13:16:17;93949.34;;;28.95;78.97
73332;BME280;61560;33.718;73.040;2022-07-23T13:18:44;93954.00;;;28.93;78.89
73332;BME280;61560;33.718;73.040;2022-07-23T13:21:10;93955.34;;;28.92;79.65
73332;BME280;61560;33.718;73.040;2022-07-23T13:23:39;93946.59;;;28.82;79.51
73332;BME280;61560;33.718;73.040;2022-07-23T13:26:06;93971.66;;;28.86;79.66
73332;BME280;61560;33.718;73.040;2022-07-23T13:28:32;93960.50;;;28.80;80.21
73332;BME280;61560;33.718;73.040;2022-07-23T13:30:59;93978.72;;;28.79;80.13
73332;BME280;61560;33.718;73.040;2022-07-23T13:33:26;93976.66;;;28.80;80.20
73332;BME280;61560;33.718;73.040;2022-07-23T13:35:53;93984.91;;;28.78;79.91
73332;BME280;61560;33.718;73.040;2022-07-23T13:38:20;93992.94;;;28.74;79.92
73332;BME280;61560;33.718;73.040;2022-07-23T13:40:49;94001.56;;;28.68;79.87